Norrskar — SGFD — position and weather

sailwx.info

Track history (hours):
 
Tides and Currents Weather Stations Pressure Air Temp Water Temp Dewpoint Dewpoint Depression Visibility Wind Speed Wind Dir Waves Ship Positions

Norrskar

Last reported at 2016-May-22 05:08 UTC. Time now 2016-May-24 15:44 UTC.
Position N 59°20' E 018°05'.

Length 35 m; draft 3 m.

Type: Passenger vessel. MMSI: 265522430.

Date/timePositionNaut miles runAvg speedWind from/ knotsBaromVisibWave heightAir tempDewpointWater temp
2016-May-22 05:08N 59°20' E 018°05'0 0.0
2016-May-22 04:33N 59°20' E 018°05'0 0.0
2016-May-22 03:33N 59°20' E 018°05'0 0.0
2016-May-22 02:33N 59°20' E 018°05'0 0.0
2016-May-22 01:33N 59°20' E 018°05'0 0.0
2016-May-22 00:33N 59°20' E 018°05'0 0.0
2016-May-21 23:33N 59°20' E 018°05'0 0.0
2016-May-21 22:33N 59°20' E 018°05'0 0.0
2016-May-21 21:33N 59°20' E 018°05'0 0.0
2016-May-21 20:33N 59°20' E 018°05'0 0.0
2016-May-21 19:33N 59°20' E 018°05'0 0.0
2016-May-21 18:33N 59°20' E 018°05'0 0.0
2016-May-21 17:33N 59°20' E 018°05'0 0.0
2016-May-21 16:33N 59°20' E 018°05'0 0.0
2016-May-21 15:33N 59°20' E 018°05'1 0.3
2016-May-21 11:10N 59°19' E 018°07'1 2.1
2016-May-21 10:33N 59°20' E 018°05'0 0.0
2016-May-21 09:34N 59°20' E 018°05'0 0.0
2016-May-21 08:33N 59°20' E 018°05'0 0.0
2016-May-21 07:33N 59°20' E 018°05'0 0.0
2016-May-21 06:33N 59°20' E 018°05'0 0.0
2016-May-21 05:33N 59°20' E 018°05'0 0.0
2016-May-21 04:33N 59°20' E 018°05'0 0.0
2016-May-21 03:33N 59°20' E 018°05'0 0.0
2016-May-21 02:33N 59°20' E 018°05'0 0.0
2016-May-21 01:33N 59°20' E 018°05'0 0.0
2016-May-21 00:33N 59°20' E 018°05'0 0.0
2016-May-20 23:33N 59°20' E 018°05'0 0.0
2016-May-20 22:33N 59°20' E 018°05'0 0.0
2016-May-20 21:33N 59°20' E 018°05'0 0.0
2016-May-20 20:33N 59°20' E 018°05'4 0.9
2016-May-20 16:26N 59°20' E 018°12'4 4.1
2016-May-20 15:33N 59°20' E 018°05'0 0.0
2016-May-20 14:33N 59°20' E 018°05'0 0.0
2016-May-20 13:33N 59°20' E 018°05'0 0.0
2016-May-20 12:33N 59°20' E 018°05'0 0.0
2016-May-20 11:33N 59°20' E 018°05'0 0.0
2016-May-20 10:33N 59°20' E 018°05'0 0.0
2016-May-20 09:33N 59°20' E 018°05'0 0.0
2016-May-20 08:33N 59°20' E 018°05'0 0.0
2016-May-20 07:33N 59°20' E 018°05'0 0.0
2016-May-20 06:33N 59°20' E 018°05'0 0.0
2016-May-20 05:33N 59°20' E 018°05'0 0.0
2016-May-20 04:33N 59°20' E 018°05'0 0.0
2016-May-20 03:33N 59°20' E 018°05'0 0.0
2016-May-20 02:33N 59°20' E 018°05'0 0.0
2016-May-20 01:33N 59°20' E 018°05'0 0.0
2016-May-20 00:33N 59°20' E 018°05'0 0.0
2016-May-19 23:33N 59°20' E 018°05'0 0.0
2016-May-19 22:33N 59°20' E 018°05'0 0.0
2016-May-19 21:33N 59°20' E 018°05'0 0.0
2016-May-19 20:33N 59°20' E 018°05'3 2.8
2016-May-19 19:29N 59°20' E 018°11'2 0.6
2016-May-19 16:10N 59°19' E 018°07'1 1.3
2016-May-19 15:33N 59°19' E 018°05'0 0.0
2016-May-19 06:06N 59°20' E 018°05'0 0.0
2016-May-18 01:33N 59°20' E 018°05'0 0.0
2016-May-17 23:31N 59°20' E 018°05'0 0.0
2016-May-17 22:32N 59°20' E 018°05'0 0.0
2016-May-17 21:31N 59°20' E 018°05'0 0.0
2016-May-17 20:28N 59°20' E 018°05'0 0.0
2016-May-17 08:28N 59°20' E 018°05'0 0.0
2016-May-17 04:31N 59°20' E 018°05'0 0.0
2016-May-17 03:32N 59°20' E 018°05'0 0.0
2016-May-17 02:29N 59°20' E 018°05'0 0.0
2016-May-17 01:33N 59°20' E 018°05'0 0.0
2016-May-17 00:33N 59°20' E 018°05'0 0.0
2016-May-16 23:33N 59°20' E 018°05'0 0.0
2016-May-16 22:33N 59°20' E 018°05'0 0.0
2016-May-16 21:31N 59°20' E 018°05'0 0.0
2016-May-16 20:32N 59°20' E 018°05'0 0.0
2016-May-16 19:15N 59°20' E 018°05'0 0.0
2016-May-16 18:33N 59°20' E 018°05'0 0.0
2016-May-16 17:29N 59°20' E 018°05'0 0.0
2016-May-16 11:08N 59°20' E 018°05'0 0.0
2016-May-15 16:14N 59°20' E 018°05'2 0.4
2016-May-15 11:18N 59°19' E 018°09'2 0.1
2016-May-14 15:32N 59°20' E 018°05'1 0.3
2016-May-14 11:14N 59°19' E 018°07'7 0.4
2016-May-13 17:09N 59°23' E 018°19'6 7.9
2016-May-13 16:21N 59°19' E 018°09'1 0.0
2016-May-12 19:31N 59°19' E 018°11'0 0.0
2016-May-12 16:28N 59°19' E 018°11'3 3.3
2016-May-12 15:33N 59°20' E 018°05'0 0.0
2016-May-12 14:33N 59°20' E 018°05'0 0.0
2016-May-12 13:33N 59°20' E 018°05'0 0.0
2016-May-12 12:33N 59°20' E 018°05'0 0.0
2016-May-12 11:32N 59°20' E 018°05'0 0.0
2016-May-12 10:33N 59°20' E 018°05'0 0.0
2016-May-12 09:33N 59°20' E 018°05'0 0.0
2016-May-12 08:33N 59°20' E 018°05'0 0.0
2016-May-12 07:15N 59°20' E 018°05'0 0.0
2016-May-12 06:33N 59°20' E 018°05'0 0.0
2016-May-12 05:33N 59°20' E 018°05'  
Track history (hours):
 
Tides and Currents Weather Stations Pressure Air Temp Water Temp Dewpoint Dewpoint Depression Visibility Wind Speed Wind Dir Waves Ship Positions

Norrskar

Last reported at 2016-May-22 05:08 UTC. Time now 2016-May-24 15:44 UTC.
Position N 59°20' E 018°05'.

Length 35 m; draft 3 m.

Type: Passenger vessel. MMSI: 265522430.

Date/timePositionNaut miles runAvg speedWind from/ knotsBaromVisibWave heightAir tempDewpointWater temp
2016-May-22 05:08N 59°20' E 018°05'0 0.0
2016-May-22 04:33N 59°20' E 018°05'0 0.0
2016-May-22 03:33N 59°20' E 018°05'0 0.0
2016-May-22 02:33N 59°20' E 018°05'0 0.0
2016-May-22 01:33N 59°20' E 018°05'0 0.0
2016-May-22 00:33N 59°20' E 018°05'0 0.0
2016-May-21 23:33N 59°20' E 018°05'0 0.0
2016-May-21 22:33N 59°20' E 018°05'0 0.0
2016-May-21 21:33N 59°20' E 018°05'0 0.0
2016-May-21 20:33N 59°20' E 018°05'0 0.0
2016-May-21 19:33N 59°20' E 018°05'0 0.0
2016-May-21 18:33N 59°20' E 018°05'0 0.0
2016-May-21 17:33N 59°20' E 018°05'0 0.0
2016-May-21 16:33N 59°20' E 018°05'0 0.0
2016-May-21 15:33N 59°20' E 018°05'1 0.3
2016-May-21 11:10N 59°19' E 018°07'1 2.1
2016-May-21 10:33N 59°20' E 018°05'0 0.0
2016-May-21 09:34N 59°20' E 018°05'0 0.0
2016-May-21 08:33N 59°20' E 018°05'0 0.0
2016-May-21 07:33N 59°20' E 018°05'0 0.0
2016-May-21 06:33N 59°20' E 018°05'0 0.0
2016-May-21 05:33N 59°20' E 018°05'0 0.0
2016-May-21 04:33N 59°20' E 018°05'0 0.0
2016-May-21 03:33N 59°20' E 018°05'0 0.0
2016-May-21 02:33N 59°20' E 018°05'0 0.0
2016-May-21 01:33N 59°20' E 018°05'0 0.0
2016-May-21 00:33N 59°20' E 018°05'0 0.0
2016-May-20 23:33N 59°20' E 018°05'0 0.0
2016-May-20 22:33N 59°20' E 018°05'0 0.0
2016-May-20 21:33N 59°20' E 018°05'0 0.0
2016-May-20 20:33N 59°20' E 018°05'4 0.9
2016-May-20 16:26N 59°20' E 018°12'4 4.1
2016-May-20 15:33N 59°20' E 018°05'0 0.0
2016-May-20 14:33N 59°20' E 018°05'0 0.0
2016-May-20 13:33N 59°20' E 018°05'0 0.0
2016-May-20 12:33N 59°20' E 018°05'0 0.0
2016-May-20 11:33N 59°20' E 018°05'0 0.0
2016-May-20 10:33N 59°20' E 018°05'0 0.0
2016-May-20 09:33N 59°20' E 018°05'0 0.0
2016-May-20 08:33N 59°20' E 018°05'0 0.0
2016-May-20 07:33N 59°20' E 018°05'0 0.0
2016-May-20 06:33N 59°20' E 018°05'0 0.0
2016-May-20 05:33N 59°20' E 018°05'0 0.0
2016-May-20 04:33N 59°20' E 018°05'0 0.0
2016-May-20 03:33N 59°20' E 018°05'0 0.0
2016-May-20 02:33N 59°20' E 018°05'0 0.0
2016-May-20 01:33N 59°20' E 018°05'0 0.0
2016-May-20 00:33N 59°20' E 018°05'0 0.0
2016-May-19 23:33N 59°20' E 018°05'0 0.0
2016-May-19 22:33N 59°20' E 018°05'0 0.0
2016-May-19 21:33N 59°20' E 018°05'0 0.0
2016-May-19 20:33N 59°20' E 018°05'3 2.8
2016-May-19 19:29N 59°20' E 018°11'2 0.6
2016-May-19 16:10N 59°19' E 018°07'1 1.3
2016-May-19 15:33N 59°19' E 018°05'0 0.0
2016-May-19 06:06N 59°20' E 018°05'0 0.0
2016-May-18 01:33N 59°20' E 018°05'0 0.0
2016-May-17 23:31N 59°20' E 018°05'0 0.0
2016-May-17 22:32N 59°20' E 018°05'0 0.0
2016-May-17 21:31N 59°20' E 018°05'0 0.0
2016-May-17 20:28N 59°20' E 018°05'0 0.0
2016-May-17 08:28N 59°20' E 018°05'0 0.0
2016-May-17 04:31N 59°20' E 018°05'0 0.0
2016-May-17 03:32N 59°20' E 018°05'0 0.0
2016-May-17 02:29N 59°20' E 018°05'0 0.0
2016-May-17 01:33N 59°20' E 018°05'0 0.0
2016-May-17 00:33N 59°20' E 018°05'0 0.0
2016-May-16 23:33N 59°20' E 018°05'0 0.0
2016-May-16 22:33N 59°20' E 018°05'0 0.0
2016-May-16 21:31N 59°20' E 018°05'0 0.0
2016-May-16 20:32N 59°20' E 018°05'0 0.0
2016-May-16 19:15N 59°20' E 018°05'0 0.0
2016-May-16 18:33N 59°20' E 018°05'0 0.0
2016-May-16 17:29N 59°20' E 018°05'0 0.0
2016-May-16 11:08N 59°20' E 018°05'0 0.0
2016-May-15 16:14N 59°20' E 018°05'2 0.4
2016-May-15 11:18N 59°19' E 018°09'2 0.1
2016-May-14 15:32N 59°20' E 018°05'1 0.3
2016-May-14 11:14N 59°19' E 018°07'7 0.4
2016-May-13 17:09N 59°23' E 018°19'6 7.9
2016-May-13 16:21N 59°19' E 018°09'1 0.0
2016-May-12 19:31N 59°19' E 018°11'0 0.0
2016-May-12 16:28N 59°19' E 018°11'3 3.3
2016-May-12 15:33N 59°20' E 018°05'0 0.0
2016-May-12 14:33N 59°20' E 018°05'0 0.0
2016-May-12 13:33N 59°20' E 018°05'0 0.0
2016-May-12 12:33N 59°20' E 018°05'0 0.0
2016-May-12 11:32N 59°20' E 018°05'0 0.0
2016-May-12 10:33N 59°20' E 018°05'0 0.0
2016-May-12 09:33N 59°20' E 018°05'0 0.0
2016-May-12 08:33N 59°20' E 018°05'0 0.0
2016-May-12 07:15N 59°20' E 018°05'0 0.0
2016-May-12 06:33N 59°20' E 018°05'0 0.0
2016-May-12 05:33N 59°20' E 018°05'  

Dump ship's entire track history